Time;durP1;ratioP1;P1;durP2;ratioP2;P2;SDS_P1;SDS_P2;PMS_P1;PMS_P2;Temp;Humidity;BMP_temperature;BMP_pressure;BME280_temperature;BME280_humidity;BME280_pressure;Samples;Min_cycle;Max_cycle;Signal;HPM_P1;HPM_P2
2022/01/25 00:09:05;;;;;;;39.88;24.02;;;;;;;;;;5023700;28;20029;-58
2022/01/25 00:25:43;;;;;;;37.33;24.27;;;;;;;;;;5019506;28;20034;-58
2022/01/25 00:28:18;;;;;;;38.38;23.40;;;;;;;;;;5025170;28;20041;-59
2022/01/25 00:30:58;;;;;;;36.10;24.00;;;;;;;;;;5021752;28;20053;-56
2022/01/25 00:33:29;;;;;;;35.05;24.38;;;;;;;;;;5022499;28;20126;-54
2022/01/25 00:35:55;;;;;;;37.88;24.13;;;;;;;;;;5025686;28;20053;-57
2022/01/25 00:38:21;;;;;;;39.17;23.85;;;;;;;;;;5017656;28;20041;-58
2022/01/25 00:40:47;;;;;;;33.65;22.33;;;;;;;;;;5025044;28;20036;-58
2022/01/25 00:43:13;;;;;;;37.50;22.45;;;;;;;;;;5020253;28;20037;-59
2022/01/25 00:45:39;;;;;;;33.00;22.33;;;;;;;;;;5022408;28;20042;-57
2022/01/25 00:48:06;;;;;;;33.70;23.48;;;;;;;;;;5021621;28;20030;-57
2022/01/25 00:50:39;;;;;;;36.08;23.00;;;;;;;;;;5025094;28;20029;-59
2022/01/25 00:55:31;;;;;;;36.92;23.33;;;;;;;;;;5020531;28;20087;-58
2022/01/25 00:57:58;;;;;;;35.20;22.70;;;;;;;;;;5019666;28;20026;-58
2022/01/25 01:00:24;;;;;;;33.90;22.45;;;;;;;;;;5015027;28;20018;-58
2022/01/25 01:02:50;;;;;;;40.45;23.40;;;;;;;;;;5018731;28;20375;-59
2022/01/25 01:05:16;;;;;;;36.50;22.38;;;;;;;;;;5026919;28;20039;-58
2022/01/25 01:07:42;;;;;;;33.50;22.73;;;;;;;;;;5018008;28;20390;-55
2022/01/25 01:10:12;;;;;;;32.25;21.20;;;;;;;;;;5020561;28;20108;-57
2022/01/25 01:15:43;;;;;;;28.13;20.27;;;;;;;;;;5020673;28;20084;-58
2022/01/25 01:31:49;;;;;;;32.80;20.85;;;;;;;;;;5025901;28;20382;-54
2022/01/25 01:34:40;;;;;;;29.60;19.98;;;;;;;;;;5021828;28;20044;-59
2022/01/25 01:45:25;;;;;;;29.83;19.90;;;;;;;;;;5026288;28;20033;-58
2022/01/25 01:48:00;;;;;;;27.92;20.63;;;;;;;;;;5022041;28;20041;-58
2022/01/25 01:50:28;;;;;;;30.52;20.05;;;;;;;;;;5023354;28;20540;-57
2022/01/25 01:52:55;;;;;;;32.47;20.05;;;;;;;;;;5020848;28;20117;-56
2022/01/25 01:55:21;;;;;;;31.23;21.23;;;;;;;;;;5017718;28;20057;-56
2022/01/25 01:57:49;;;;;;;28.02;21.30;;;;;;;;;;5024128;28;20068;-56
2022/01/25 02:00:17;;;;;;;31.50;20.90;;;;;;;;;;5023481;28;20029;-59
2022/01/25 02:02:43;;;;;;;28.67;19.67;;;;;;;;;;5021661;28;20248;-58
2022/01/25 02:05:08;;;;;;;28.85;18.85;;;;;;;;;;5021769;28;20079;-57
2022/01/25 02:07:34;;;;;;;33.97;18.88;;;;;;;;;;5023143;28;20040;-58
2022/01/25 02:10:01;;;;;;;26.55;17.02;;;;;;;;;;5024721;28;20043;-57
2022/01/25 02:12:28;;;;;;;25.92;17.63;;;;;;;;;;5022984;28;20056;-54
2022/01/25 02:14:55;;;;;;;30.73;18.23;;;;;;;;;;5026255;28;20025;-58
2022/01/25 02:17:53;;;;;;;27.50;17.65;;;;;;;;;;5025793;28;20040;-56
2022/01/25 02:23:33;;;;;;;26.25;16.38;;;;;;;;;;5021759;28;20497;-58
2022/01/25 02:26:01;;;;;;;34.13;16.50;;;;;;;;;;5016157;28;20180;-58
2022/01/25 02:28:30;;;;;;;23.95;15.82;;;;;;;;;;5023880;28;20096;-57
2022/01/25 02:30:57;;;;;;;28.98;15.50;;;;;;;;;;5024044;28;20104;-56
2022/01/25 02:33:23;;;;;;;23.70;15.95;;;;;;;;;;5024582;28;20274;-59
2022/01/25 02:35:50;;;;;;;22.85;14.73;;;;;;;;;;5026833;28;20052;-57
2022/01/25 02:38:24;;;;;;;27.63;15.57;;;;;;;;;;5025742;28;20060;-58
2022/01/25 02:40:50;;;;;;;26.92;16.45;;;;;;;;;;5019065;28;20117;-58
2022/01/25 02:43:18;;;;;;;22.33;15.38;;;;;;;;;;5019225;28;20124;-57
2022/01/25 02:46:01;;;;;;;23.20;15.00;;;;;;;;;;5021602;28;20033;-57
2022/01/25 02:48:30;;;;;;;21.15;14.38;;;;;;;;;;5029097;28;20025;-56
2022/01/25 02:51:01;;;;;;;22.38;14.23;;;;;;;;;;5022556;28;20075;-56
2022/01/25 02:53:28;;;;;;;17.65;13.15;;;;;;;;;;5022484;28;20530;-58
2022/01/25 02:55:55;;;;;;;18.67;13.68;;;;;;;;;;5021238;28;20029;-58
2022/01/25 02:58:21;;;;;;;17.13;11.77;;;;;;;;;;5021952;28;20418;-58
2022/01/25 03:00:47;;;;;;;18.42;12.35;;;;;;;;;;5027570;28;20646;-56
2022/01/25 03:03:12;;;;;;;15.77;10.60;;;;;;;;;;5024904;28;20081;-59
2022/01/25 03:05:38;;;;;;;18.58;11.60;;;;;;;;;;5022773;28;20034;-58
2022/01/25 03:08:04;;;;;;;18.73;11.25;;;;;;;;;;5021628;28;20532;-58
2022/01/25 03:10:40;;;;;;;16.88;11.65;;;;;;;;;;5024609;28;20040;-56
2022/01/25 03:13:11;;;;;;;15.25;11.30;;;;;;;;;;5022436;28;20040;-57
2022/01/25 03:16:18;;;;;;;15.43;9.93;;;;;;;;;;5022874;28;20034;-58
2022/01/25 03:21:04;;;;;;;15.07;10.23;;;;;;;;;;5024955;28;20057;-57
2022/01/25 03:23:31;;;;;;;19.93;11.67;;;;;;;;;;5025648;28;20067;-57
2022/01/25 03:25:58;;;;;;;12.57;9.70;;;;;;;;;;5023954;28;20286;-57
2022/01/25 03:28:24;;;;;;;16.35;11.13;;;;;;;;;;5022780;28;20504;-58
2022/01/25 03:30:50;;;;;;;21.13;14.18;;;;;;;;;;5024730;28;20033;-58
2022/01/25 03:33:17;;;;;;;32.03;20.85;;;;;;;;;;5026335;28;20389;-58
2022/01/25 03:35:44;;;;;;;37.65;23.23;;;;;;;;;;5025865;28;20026;-59
2022/01/25 03:38:10;;;;;;;34.70;23.23;;;;;;;;;;5018842;28;20033;-57
2022/01/25 03:40:36;;;;;;;33.92;22.42;;;;;;;;;;5022616;28;20029;-58
2022/01/25 03:43:05;;;;;;;36.20;24.98;;;;;;;;;;5017948;28;20048;-59
2022/01/25 03:45:33;;;;;;;35.65;23.08;;;;;;;;;;5015581;28;20117;-57
2022/01/25 03:50:26;;;;;;;39.45;26.25;;;;;;;;;;5026260;28;20036;-59
2022/01/25 03:52:52;;;;;;;36.60;25.48;;;;;;;;;;5022694;28;20041;-57
2022/01/25 03:55:18;;;;;;;36.55;26.27;;;;;;;;;;5021961;28;20022;-56
2022/01/25 03:57:44;;;;;;;43.15;26.98;;;;;;;;;;5016389;28;20104;-58
2022/01/25 04:00:11;;;;;;;36.60;25.35;;;;;;;;;;5022173;28;20049;-59
2022/01/25 04:02:45;;;;;;;48.10;27.27;;;;;;;;;;5022412;28;20091;-57
2022/01/25 04:05:20;;;;;;;37.40;26.60;;;;;;;;;;5022416;28;20033;-58
2022/01/25 04:07:50;;;;;;;39.80;27.13;;;;;;;;;;5020270;28;20042;-58
2022/01/25 04:10:19;;;;;;;43.58;26.67;;;;;;;;;;5023783;28;20037;-59
2022/01/25 04:12:48;;;;;;;37.67;26.60;;;;;;;;;;5018899;28;20041;-58
2022/01/25 04:15:15;;;;;;;48.80;28.10;;;;;;;;;;5022912;28;20087;-59
2022/01/25 04:17:45;;;;;;;47.05;28.33;;;;;;;;;;5022176;28;20029;-58
2022/01/25 04:25:21;;;;;;;46.83;31.27;;;;;;;;;;5021425;28;20043;-59
2022/01/25 04:27:48;;;;;;;59.20;34.22;;;;;;;;;;5020077;28;20030;-58
2022/01/25 04:30:13;;;;;;;50.75;34.15;;;;;;;;;;5025379;28;20030;-56
2022/01/25 04:32:49;;;;;;;55.83;32.42;;;;;;;;;;5021441;28;20080;-59
2022/01/25 04:49:06;;;;;;;47.75;30.60;;;;;;;;;;5023705;28;20033;-58
2022/01/25 04:51:51;;;;;;;42.58;28.83;;;;;;;;;;5021301;28;20125;-58
2022/01/25 04:54:34;;;;;;;47.78;30.00;;;;;;;;;;5021554;28;20029;-57
2022/01/25 05:02:08;;;;;;;40.63;28.25;;;;;;;;;;5019187;28;20116;-57
2022/01/25 05:04:39;;;;;;;43.08;28.35;;;;;;;;;;5016601;28;20486;-56
2022/01/25 05:07:18;;;;;;;41.85;29.00;;;;;;;;;;5022154;28;20032;-57
2022/01/25 05:09:45;;;;;;;39.63;27.17;;;;;;;;;;5022807;28;20045;-59
2022/01/25 05:12:12;;;;;;;36.40;25.45;;;;;;;;;;5022103;28;20045;-59
2022/01/25 05:14:56;;;;;;;34.40;22.52;;;;;;;;;;5021918;28;20107;-59
2022/01/25 05:17:31;;;;;;;23.15;18.33;;;;;;;;;;5016577;28;20385;-58
2022/01/25 05:22:40;;;;;;;20.63;13.35;;;;;;;;;;5018391;28;20535;-59
2022/01/25 05:25:06;;;;;;;21.00;11.45;;;;;;;;;;5019431;28;20132;-58
2022/01/25 05:27:32;;;;;;;14.18;11.23;;;;;;;;;;5020190;28;20065;-58
2022/01/25 05:29:58;;;;;;;14.77;10.52;;;;;;;;;;5023953;28;20061;-57
2022/01/25 05:32:24;;;;;;;16.30;10.40;;;;;;;;;;5021616;28;20030;-57
2022/01/25 05:34:50;;;;;;;20.08;10.30;;;;;;;;;;5020426;28;20091;-59
2022/01/25 05:37:16;;;;;;;14.45;10.77;;;;;;;;;;5017938;28;20083;-59
2022/01/25 05:39:41;;;;;;;14.43;10.00;;;;;;;;;;5020282;28;20087;-59
2022/01/25 05:47:08;;;;;;;15.25;9.95;;;;;;;;;;5020983;28;20440;-58
2022/01/25 05:49:36;;;;;;;14.00;9.63;;;;;;;;;;5023117;28;20031;-57
2022/01/25 05:52:08;;;;;;;12.48;9.30;;;;;;;;;;5017292;28;20037;-59
2022/01/25 05:54:34;;;;;;;11.60;9.00;;;;;;;;;;5024861;28;20049;-57
2022/01/25 05:57:00;;;;;;;11.75;8.88;;;;;;;;;;5023771;28;20585;-58
2022/01/25 05:59:27;;;;;;;15.43;9.57;;;;;;;;;;5024953;28;20041;-59
2022/01/25 06:01:52;;;;;;;11.88;9.02;;;;;;;;;;5020762;28;20040;-59
2022/01/25 06:04:21;;;;;;;11.98;8.95;;;;;;;;;;5023947;28;20393;-58
2022/01/25 06:06:46;;;;;;;12.23;9.13;;;;;;;;;;5020636;28;20088;-59
2022/01/25 06:09:12;;;;;;;12.88;9.52;;;;;;;;;;5021643;28;20042;-59
2022/01/25 06:11:38;;;;;;;12.50;8.85;;;;;;;;;;5018654;28;20038;-59
2022/01/25 06:14:04;;;;;;;12.48;9.23;;;;;;;;;;5021225;28;20429;-58
2022/01/25 06:16:30;;;;;;;13.55;9.57;;;;;;;;;;5020981;28;20037;-59
2022/01/25 06:18:57;;;;;;;13.98;9.40;;;;;;;;;;5025348;28;20389;-58
2022/01/25 06:21:22;;;;;;;17.25;10.05;;;;;;;;;;5022317;28;20049;-58
2022/01/25 06:23:49;;;;;;;14.50;9.63;;;;;;;;;;5023225;28;20124;-57
2022/01/25 06:26:16;;;;;;;12.75;9.77;;;;;;;;;;5023981;28;20049;-59
2022/01/25 06:28:41;;;;;;;15.18;11.20;;;;;;;;;;5021086;28;20508;-59
2022/01/25 06:31:08;;;;;;;15.40;10.85;;;;;;;;;;5023839;28;20065;-59
2022/01/25 06:33:34;;;;;;;18.77;9.77;;;;;;;;;;5023316;28;20030;-59
2022/01/25 06:36:00;;;;;;;14.38;10.18;;;;;;;;;;5019883;28;20037;-59
2022/01/25 06:38:29;;;;;;;17.73;12.13;;;;;;;;;;5023469;28;20450;-59
2022/01/25 06:40:55;;;;;;;13.75;10.07;;;;;;;;;;5020288;28;20026;-58
2022/01/25 06:43:21;;;;;;;11.55;9.73;;;;;;;;;;5021317;28;20095;-59
2022/01/25 06:45:55;;;;;;;14.13;10.02;;;;;;;;;;5023716;28;20071;-59
2022/01/25 06:48:21;;;;;;;13.45;10.13;;;;;;;;;;5025898;28;20057;-59
2022/01/25 06:50:47;;;;;;;14.57;10.15;;;;;;;;;;5023870;28;20091;-58
2022/01/25 06:53:13;;;;;;;12.82;10.57;;;;;;;;;;5019904;28;20493;-59
2022/01/25 06:55:40;;;;;;;15.15;10.65;;;;;;;;;;5023622;28;20040;-58
2022/01/25 06:58:06;;;;;;;17.25;10.07;;;;;;;;;;5023303;28;20025;-59
2022/01/25 07:00:31;;;;;;;14.18;9.63;;;;;;;;;;5021793;28;20394;-59
2022/01/25 07:02:57;;;;;;;15.80;10.30;;;;;;;;;;5024561;28;20040;-58
2022/01/25 07:05:23;;;;;;;12.52;10.63;;;;;;;;;;5020760;28;20449;-59
2022/01/25 07:07:48;;;;;;;15.98;11.23;;;;;;;;;;5019004;28;20481;-59
2022/01/25 07:10:14;;;;;;;14.90;9.35;;;;;;;;;;5020779;28;20560;-59
2022/01/25 07:12:40;;;;;;;13.65;10.25;;;;;;;;;;5024133;28;20036;-62
2022/01/25 07:15:06;;;;;;;15.10;11.45;;;;;;;;;;5015812;28;20095;-58
2022/01/25 07:17:32;;;;;;;15.68;9.88;;;;;;;;;;5021200;28;20026;-59
2022/01/25 07:19:58;;;;;;;12.93;10.05;;;;;;;;;;5021693;28;20038;-59
2022/01/25 07:22:24;;;;;;;17.05;9.55;;;;;;;;;;5021588;28;20091;-59
2022/01/25 07:24:50;;;;;;;11.63;9.13;;;;;;;;;;5015913;28;20542;-59
2022/01/25 07:27:16;;;;;;;12.63;9.20;;;;;;;;;;5019523;28;20050;-57
2022/01/25 07:29:42;;;;;;;11.60;8.85;;;;;;;;;;5017722;28;20034;-63
2022/01/25 07:32:08;;;;;;;10.80;8.25;;;;;;;;;;5019611;28;20490;-56
2022/01/25 07:34:33;;;;;;;10.00;8.52;;;;;;;;;;5018973;28;20026;-58
2022/01/25 07:36:59;;;;;;;11.23;8.30;;;;;;;;;;5022960;28;20577;-57
2022/01/25 07:39:26;;;;;;;10.70;8.55;;;;;;;;;;5019850;28;20036;-59
2022/01/25 07:41:57;;;;;;;12.23;8.20;;;;;;;;;;5023189;28;20042;-59
2022/01/25 07:44:27;;;;;;;10.13;8.48;;;;;;;;;;5020011;28;20117;-60
2022/01/25 07:46:57;;;;;;;14.82;10.27;;;;;;;;;;5020947;28;20038;-57
2022/01/25 07:49:24;;;;;;;22.23;13.20;;;;;;;;;;5020173;28;20029;-59
2022/01/25 07:51:51;;;;;;;23.17;12.30;;;;;;;;;;5022685;28;20107;-58
2022/01/25 07:54:16;;;;;;;16.60;12.25;;;;;;;;;;5024100;28;20034;-59
2022/01/25 07:56:42;;;;;;;16.52;11.68;;;;;;;;;;5022680;28;20032;-59
2022/01/25 07:59:08;;;;;;;12.65;10.10;;;;;;;;;;5025140;28;20037;-57
2022/01/25 08:01:34;;;;;;;12.20;10.43;;;;;;;;;;5023751;28;20025;-59
2022/01/25 08:04:00;;;;;;;18.73;11.32;;;;;;;;;;5022007;28;20037;-60
2022/01/25 08:06:25;;;;;;;17.52;12.57;;;;;;;;;;5023401;28;20048;-59
2022/01/25 08:08:52;;;;;;;29.33;17.65;;;;;;;;;;5025438;28;20029;-60
2022/01/25 08:11:19;;;;;;;25.02;17.08;;;;;;;;;;5019135;28;20022;-59
2022/01/25 08:13:49;;;;;;;37.28;19.00;;;;;;;;;;5023533;28;20036;-58
2022/01/25 08:16:16;;;;;;;33.53;19.67;;;;;;;;;;5019408;28;20803;-59
2022/01/25 08:18:42;;;;;;;29.50;19.05;;;;;;;;;;5024230;28;20029;-59
2022/01/25 08:21:08;;;;;;;23.05;17.10;;;;;;;;;;5024753;28;20045;-59
2022/01/25 08:23:34;;;;;;;19.30;13.93;;;;;;;;;;5019856;28;20029;-58
2022/01/25 08:26:01;;;;;;;18.95;14.98;;;;;;;;;;5024362;28;20017;-59
2022/01/25 08:28:27;;;;;;;25.58;14.98;;;;;;;;;;5022683;28;20485;-59
2022/01/25 08:30:52;;;;;;;22.23;16.42;;;;;;;;;;5022657;28;20022;-59
2022/01/25 08:33:18;;;;;;;26.92;17.48;;;;;;;;;;5016122;28;20041;-58
2022/01/25 08:35:44;;;;;;;27.13;18.88;;;;;;;;;;5021718;28;20030;-59
2022/01/25 08:38:09;;;;;;;28.65;17.75;;;;;;;;;;5021151;28;20044;-59
2022/01/25 08:40:35;;;;;;;27.80;19.08;;;;;;;;;;5021200;28;20105;-58
2022/01/25 08:43:02;;;;;;;32.38;22.55;;;;;;;;;;5017819;28;20060;-58
2022/01/25 08:45:28;;;;;;;36.80;23.58;;;;;;;;;;5022669;28;20033;-58
2022/01/25 08:47:54;;;;;;;39.53;23.02;;;;;;;;;;5023400;28;20381;-59
2022/01/25 08:50:19;;;;;;;33.50;24.50;;;;;;;;;;5019361;28;20029;-59
2022/01/25 08:52:45;;;;;;;47.00;24.80;;;;;;;;;;5019684;28;20079;-59
2022/01/25 08:55:11;;;;;;;34.45;23.58;;;;;;;;;;5019862;28;20100;-58
2022/01/25 08:57:37;;;;;;;34.00;22.00;;;;;;;;;;5018731;28;20037;-59
2022/01/25 09:00:10;;;;;;;27.17;20.33;;;;;;;;;;5016012;28;20413;-59
2022/01/25 09:02:40;;;;;;;31.20;20.90;;;;;;;;;;5021321;28;20382;-59
2022/01/25 09:05:06;;;;;;;30.98;20.88;;;;;;;;;;5022664;28;20124;-58
2022/01/25 09:07:32;;;;;;;29.77;20.85;;;;;;;;;;5021509;28;20123;-59
2022/01/25 09:09:57;;;;;;;26.15;19.45;;;;;;;;;;5022337;28;20061;-57
2022/01/25 09:12:23;;;;;;;31.50;20.40;;;;;;;;;;5027526;28;20044;-59
2022/01/25 09:14:49;;;;;;;26.83;18.50;;;;;;;;;;5018678;28;20048;-57
2022/01/25 09:17:15;;;;;;;24.13;17.30;;;;;;;;;;5023925;28;20489;-57
2022/01/25 09:19:41;;;;;;;20.52;15.95;;;;;;;;;;5023731;28;20054;-60
2022/01/25 09:22:08;;;;;;;18.70;12.30;;;;;;;;;;5021062;28;20044;-57
2022/01/25 09:24:34;;;;;;;14.40;11.35;;;;;;;;;;5020832;28;20049;-58
2022/01/25 09:27:02;;;;;;;18.98;11.98;;;;;;;;;;5025226;28;20108;-59
2022/01/25 09:29:28;;;;;;;28.85;20.45;;;;;;;;;;5025061;28;20037;-59
2022/01/25 09:31:54;;;;;;;33.47;23.30;;;;;;;;;;5028589;28;20489;-58
2022/01/25 09:34:23;;;;;;;38.90;23.45;;;;;;;;;;5019017;28;20160;-59
2022/01/25 09:36:50;;;;;;;31.42;21.58;;;;;;;;;;5023647;28;20394;-58
2022/01/25 09:39:16;;;;;;;31.23;21.77;;;;;;;;;;5024695;28;20034;-58
2022/01/25 09:41:42;;;;;;;36.22;21.75;;;;;;;;;;5021670;28;20049;-59
2022/01/25 09:44:08;;;;;;;40.33;21.10;;;;;;;;;;5022711;28;20061;-60
2022/01/25 09:46:34;;;;;;;31.90;19.52;;;;;;;;;;5020607;28;20036;-59
2022/01/25 09:49:00;;;;;;;31.77;19.17;;;;;;;;;;5027244;28;20034;-59
2022/01/25 09:51:27;;;;;;;28.65;20.98;;;;;;;;;;5023684;28;20026;-58
2022/01/25 09:53:53;;;;;;;39.50;19.58;;;;;;;;;;5024859;28;20147;-59
2022/01/25 09:56:18;;;;;;;28.67;20.42;;;;;;;;;;5021985;28;20478;-58
2022/01/25 09:58:44;;;;;;;33.90;22.52;;;;;;;;;;5024392;28;20104;-60
2022/01/25 10:01:11;;;;;;;45.20;24.17;;;;;;;;;;5022002;28;20029;-59
2022/01/25 10:03:39;;;;;;;41.97;24.08;;;;;;;;;;5025459;28;20041;-59
2022/01/25 10:06:15;;;;;;;44.35;25.02;;;;;;;;;;5023863;28;20056;-60
2022/01/25 10:08:41;;;;;;;50.70;26.35;;;;;;;;;;5026801;28;20618;-60
2022/01/25 10:11:10;;;;;;;45.08;28.95;;;;;;;;;;5018074;28;20030;-60
2022/01/25 10:13:41;;;;;;;48.45;28.75;;;;;;;;;;5025674;28;20025;-57
2022/01/25 10:16:13;;;;;;;49.13;31.97;;;;;;;;;;5019346;28;20073;-60
2022/01/25 10:18:39;;;;;;;62.20;34.85;;;;;;;;;;5023442;28;20287;-60
2022/01/25 10:21:17;;;;;;;57.35;33.50;;;;;;;;;;5020676;28;20064;-60
2022/01/25 10:24:07;;;;;;;54.60;33.13;;;;;;;;;;5028253;28;20045;-60
2022/01/25 10:26:34;;;;;;;52.78;33.95;;;;;;;;;;5021774;28;20034;-60
2022/01/25 10:29:00;;;;;;;58.00;35.42;;;;;;;;;;5021666;28;20371;-60
2022/01/25 10:32:00;;;;;;;53.05;34.92;;;;;;;;;;5019948;28;20522;-60
2022/01/25 10:34:27;;;;;;;55.40;33.47;;;;;;;;;;4985915;28;20446;-60
2022/01/25 10:36:53;;;;;;;52.40;34.30;;;;;;;;;;4987272;28;20046;-60
2022/01/25 10:39:32;;;;;;;55.20;34.83;;;;;;;;;;4987687;28;20042;-60
2022/01/25 10:42:25;;;;;;;50.50;32.70;;;;;;;;;;4986004;28;20038;-60
2022/01/25 10:44:51;;;;;;;53.38;30.92;;;;;;;;;;4984963;28;20042;-59
2022/01/25 10:47:20;;;;;;;64.38;34.58;;;;;;;;;;4984740;28;20046;-61
2022/01/25 10:49:48;;;;;;;55.42;36.67;;;;;;;;;;4987408;28;20097;-59
2022/01/25 10:52:13;;;;;;;59.00;35.30;;;;;;;;;;4986315;28;20042;-59
2022/01/25 10:54:40;;;;;;;64.60;37.45;;;;;;;;;;4987470;28;20438;-60
2022/01/25 10:57:18;;;;;;;74.13;42.33;;;;;;;;;;4986942;28;20042;-60
2022/01/25 10:59:59;;;;;;;55.63;36.03;;;;;;;;;;4982238;28;20037;-60
2022/01/25 11:02:25;;;;;;;52.78;33.08;;;;;;;;;;4981714;28;20026;-60
2022/01/25 11:04:52;;;;;;;56.67;35.15;;;;;;;;;;4986469;28;20038;-60
2022/01/25 11:07:18;;;;;;;57.80;33.83;;;;;;;;;;4986393;28;20537;-60
2022/01/25 11:09:45;;;;;;;52.00;34.58;;;;;;;;;;4998625;28;20486;-60
2022/01/25 11:12:15;;;;;;;51.22;31.42;;;;;;;;;;5025565;28;20471;-60
2022/01/25 11:14:56;;;;;;;49.20;31.02;;;;;;;;;;5023612;28;20026;-60
2022/01/25 11:17:27;;;;;;;47.03;30.52;;;;;;;;;;5019362;28;20050;-60
2022/01/25 11:19:53;;;;;;;43.38;29.90;;;;;;;;;;5021059;28;20099;-60
2022/01/25 11:22:20;;;;;;;44.55;29.02;;;;;;;;;;5022635;28;20029;-60
2022/01/25 11:24:57;;;;;;;44.63;31.10;;;;;;;;;;5017409;28;20057;-60
2022/01/25 11:27:26;;;;;;;47.25;28.95;;;;;;;;;;5024561;28;20052;-60
2022/01/25 11:29:55;;;;;;;51.92;29.45;;;;;;;;;;5021015;28;20021;-59
2022/01/25 11:32:25;;;;;;;43.70;31.10;;;;;;;;;;5020056;28;20052;-60
2022/01/25 11:34:52;;;;;;;44.35;30.38;;;;;;;;;;5020016;28;20025;-60
2022/01/25 11:37:19;;;;;;;39.55;28.52;;;;;;;;;;5022828;28;20033;-60
2022/01/25 11:39:47;;;;;;;40.38;27.73;;;;;;;;;;5022090;28;20176;-60
2022/01/25 11:42:23;;;;;;;43.15;28.70;;;;;;;;;;5017818;28;20040;-60
2022/01/25 11:44:55;;;;;;;41.30;26.45;;;;;;;;;;5022371;28;20037;-60
2022/01/25 11:47:29;;;;;;;40.42;27.05;;;;;;;;;;5022222;28;20033;-60
2022/01/25 11:50:02;;;;;;;40.78;26.23;;;;;;;;;;5023285;28;20044;-60
2022/01/25 11:52:30;;;;;;;37.78;26.10;;;;;;;;;;5024076;28;20025;-60
2022/01/25 11:55:26;;;;;;;37.58;25.25;;;;;;;;;;5015729;28;20504;-60
2022/01/25 11:57:58;;;;;;;38.30;25.85;;;;;;;;;;5021968;28;20111;-60
2022/01/25 12:00:47;;;;;;;36.30;26.10;;;;;;;;;;5021065;28;20119;-61
2022/01/25 12:03:29;;;;;;;29.85;21.55;;;;;;;;;;5027364;28;20498;-60
2022/01/25 12:06:06;;;;;;;29.55;21.35;;;;;;;;;;5019167;28;20041;-60
2022/01/25 12:11:44;;;;;;;34.78;22.13;;;;;;;;;;5020597;28;20045;-60
2022/01/25 12:14:12;;;;;;;36.17;21.50;;;;;;;;;;5021100;28;20021;-60
2022/01/25 12:16:44;;;;;;;32.83;22.17;;;;;;;;;;5025040;28;20029;-60
2022/01/25 12:19:12;;;;;;;27.63;19.00;;;;;;;;;;5021856;28;20040;-59
2022/01/25 12:21:44;;;;;;;29.33;21.48;;;;;;;;;;5019819;28;20097;-60
2022/01/25 12:24:24;;;;;;;39.72;26.27;;;;;;;;;;5021134;28;20040;-60
2022/01/25 12:29:41;;;;;;;33.08;20.48;;;;;;;;;;5021546;28;20037;-60
2022/01/25 12:32:25;;;;;;;41.20;22.95;;;;;;;;;;5023066;28;20033;-60
2022/01/25 12:35:03;;;;;;;40.85;25.00;;;;;;;;;;5020183;28;20190;-60
2022/01/25 12:37:44;;;;;;;40.75;25.05;;;;;;;;;;5020450;28;20078;-60
2022/01/25 12:40:25;;;;;;;36.90;21.23;;;;;;;;;;5015973;28;20378;-60
2022/01/25 12:43:02;;;;;;;38.03;23.20;;;;;;;;;;5023327;28;20060;-61
2022/01/25 12:45:31;;;;;;;35.63;22.13;;;;;;;;;;5024638;28;20825;-60
2022/01/25 12:48:19;;;;;;;34.10;21.63;;;;;;;;;;5023595;28;20030;-60
2022/01/25 12:50:49;;;;;;;34.00;23.08;;;;;;;;;;5021766;28;20033;-60
2022/01/25 12:53:19;;;;;;;37.78;23.17;;;;;;;;;;5020557;28;20646;-60
2022/01/25 12:55:49;;;;;;;38.50;22.33;;;;;;;;;;5019207;28;20040;-60
2022/01/25 12:58:18;;;;;;;30.08;21.35;;;;;;;;;;5020573;28;20504;-60
2022/01/25 13:00:47;;;;;;;27.98;19.02;;;;;;;;;;5017541;28;20116;-60
2022/01/25 13:03:27;;;;;;;31.33;20.50;;;;;;;;;;5018840;28;20112;-60
2022/01/25 13:05:57;;;;;;;31.42;19.65;;;;;;;;;;5016220;28;20034;-60
2022/01/25 13:08:34;;;;;;;26.20;19.20;;;;;;;;;;5020294;28;20112;-60
2022/01/25 13:16:43;;;;;;;33.13;19.80;;;;;;;;;;5001245;28;20505;-59
2022/01/25 13:19:10;;;;;;;32.35;21.35;;;;;;;;;;5002393;28;20034;-60
2022/01/25 13:21:57;;;;;;;38.92;22.42;;;;;;;;;;4997236;28;20049;-59
2022/01/25 13:24:29;;;;;;;34.47;21.35;;;;;;;;;;4998604;28;20431;-60
2022/01/25 13:26:57;;;;;;;27.23;19.05;;;;;;;;;;4995312;28;20031;-61
2022/01/25 13:32:21;;;;;;;31.45;22.25;;;;;;;;;;4998463;28;20038;-60
2022/01/25 13:35:28;;;;;;;27.73;17.00;;;;;;;;;;4995420;28;20044;-60
2022/01/25 13:38:04;;;;;;;25.67;16.83;;;;;;;;;;4998614;28;20044;-60
2022/01/25 13:40:50;;;;;;;20.88;15.90;;;;;;;;;;4997927;28;20033;-60
2022/01/25 13:46:28;;;;;;;29.27;17.40;;;;;;;;;;4983272;28;20505;-60
2022/01/25 13:49:05;;;;;;;21.15;16.17;;;;;;;;;;4977278;28;20133;-60
2022/01/25 13:51:39;;;;;;;35.10;17.25;;;;;;;;;;4967076;28;20034;-60
2022/01/25 13:54:05;;;;;;;24.17;16.83;;;;;;;;;;4964402;28;20033;-60
2022/01/25 13:56:34;;;;;;;25.80;15.68;;;;;;;;;;4964919;28;20030;-59
2022/01/25 13:59:03;;;;;;;20.73;14.43;;;;;;;;;;4965710;28;20031;-60
2022/01/25 14:01:30;;;;;;;26.42;15.35;;;;;;;;;;4965245;28;20033;-60
2022/01/25 14:04:06;;;;;;;26.95;16.05;;;;;;;;;;4964487;28;20034;-60
2022/01/25 14:06:36;;;;;;;31.10;16.55;;;;;;;;;;4966844;28;20567;-59
2022/01/25 14:09:21;;;;;;;25.20;15.70;;;;;;;;;;4965058;28;20027;-60
2022/01/25 14:21:31;;;;;;;22.88;17.00;;;;;;;;;;4968163;28;20162;-60
2022/01/25 14:25:43;;;;;;;36.88;18.55;;;;;;;;;;5021111;28;20039;-60
2022/01/25 14:28:12;;;;;;;25.25;15.60;;;;;;;;;;5028050;28;20025;-60
2022/01/25 14:30:41;;;;;;;35.50;16.88;;;;;;;;;;5016281;28;20044;-60
2022/01/25 14:33:11;;;;;;;27.90;14.57;;;;;;;;;;5026063;28;20036;-60
2022/01/25 14:35:43;;;;;;;22.65;14.98;;;;;;;;;;5024774;28;20029;-60
2022/01/25 14:38:15;;;;;;;23.55;14.23;;;;;;;;;;5027486;28;20045;-59
2022/01/25 14:40:40;;;;;;;;;;;;;;;;;;5020561;28;20069;-60
2022/01/25 14:43:08;;;;;;;21.80;13.50;;;;;;;;;;5028825;28;20007;-60
2022/01/25 14:45:34;;;;;;;19.13;12.68;;;;;;;;;;5026343;28;20171;-60
2022/01/25 14:48:01;;;;;;;23.40;12.95;;;;;;;;;;5022690;28;20108;-60
2022/01/25 14:50:33;;;;;;;17.38;13.23;;;;;;;;;;5020739;28;20124;-60
2022/01/25 14:53:01;;;;;;;23.63;16.25;;;;;;;;;;5026391;28;20022;-60
2022/01/25 14:55:28;;;;;;;22.90;14.65;;;;;;;;;;5025424;28;20021;-60
2022/01/25 14:58:10;;;;;;;26.77;15.52;;;;;;;;;;5024138;28;20462;-60
2022/01/25 15:01:00;;;;;;;25.70;18.00;;;;;;;;;;5020342;28;20038;-60
2022/01/25 15:03:27;;;;;;;24.13;17.27;;;;;;;;;;5012964;28;20095;-60
2022/01/25 15:05:53;;;;;;;27.02;18.05;;;;;;;;;;5021873;28;20030;-60
2022/01/25 15:08:21;;;;;;;26.33;18.58;;;;;;;;;;5021108;28;20039;-60
2022/01/25 15:10:48;;;;;;;31.95;20.90;;;;;;;;;;5006602;28;21132;-60
2022/01/25 15:13:24;;;;;;;31.25;22.45;;;;;;;;;;5025707;28;20034;-60
2022/01/25 15:15:56;;;;;;;36.20;25.33;;;;;;;;;;5017409;28;20018;-59
2022/01/25 15:18:42;;;;;;;34.57;24.57;;;;;;;;;;5025728;28;20033;-60
2022/01/25 15:21:08;;;;;;;33.10;24.10;;;;;;;;;;5020208;28;20042;-60
2022/01/25 15:23:35;;;;;;;39.63;25.13;;;;;;;;;;5024871;28;20034;-60
2022/01/25 15:26:05;;;;;;;40.88;25.55;;;;;;;;;;5019091;28;20103;-60
2022/01/25 15:28:38;;;;;;;30.67;24.08;;;;;;;;;;5017376;28;20076;-59
2022/01/25 15:31:05;;;;;;;36.35;25.98;;;;;;;;;;5014805;28;20033;-60
2022/01/25 15:33:32;;;;;;;35.67;26.02;;;;;;;;;;5026516;28;20029;-60
2022/01/25 15:35:59;;;;;;;37.03;26.10;;;;;;;;;;5023227;28;20025;-60
2022/01/25 15:38:24;;;;;;;32.92;24.42;;;;;;;;;;5024000;28;20045;-60
2022/01/25 15:40:50;;;;;;;38.40;27.65;;;;;;;;;;5021663;28;20113;-60
2022/01/25 15:43:22;;;;;;;47.40;28.35;;;;;;;;;;5023231;28;20110;-59
2022/01/25 15:48:26;;;;;;;33.17;24.73;;;;;;;;;;5025952;28;20394;-59
2022/01/25 15:50:52;;;;;;;37.63;24.13;;;;;;;;;;5027880;28;20037;-60
2022/01/25 15:53:18;;;;;;;38.15;22.95;;;;;;;;;;5026297;28;20475;-60
2022/01/25 15:55:45;;;;;;;29.55;21.77;;;;;;;;;;5025781;28;20107;-60
2022/01/25 15:58:10;;;;;;;35.10;22.17;;;;;;;;;;5017904;28;20651;-60
2022/01/25 16:00:37;;;;;;;30.52;23.30;;;;;;;;;;5021377;28;20545;-61
2022/01/25 16:03:04;;;;;;;31.33;23.25;;;;;;;;;;5021942;28;20035;-60
2022/01/25 16:05:30;;;;;;;31.88;22.65;;;;;;;;;;5021834;28;20127;-60
2022/01/25 16:07:55;;;;;;;30.98;22.70;;;;;;;;;;5018292;28;20040;-61
2022/01/25 16:10:22;;;;;;;28.42;21.20;;;;;;;;;;5019482;28;20038;-59
2022/01/25 16:12:48;;;;;;;29.52;22.33;;;;;;;;;;5017510;28;20401;-60
2022/01/25 16:15:14;;;;;;;30.40;21.45;;;;;;;;;;5019886;28;20470;-60
2022/01/25 16:17:41;;;;;;;42.83;23.95;;;;;;;;;;5024312;28;20025;-60
2022/01/25 16:20:10;;;;;;;37.38;24.15;;;;;;;;;;5022232;28;20068;-60
2022/01/25 16:22:37;;;;;;;34.30;24.52;;;;;;;;;;5018044;28;20037;-60
2022/01/25 16:25:04;;;;;;;37.30;25.08;;;;;;;;;;5021230;28;20052;-60
2022/01/25 16:27:29;;;;;;;41.05;26.50;;;;;;;;;;5020269;28;20033;-61
2022/01/25 16:29:55;;;;;;;38.97;25.90;;;;;;;;;;5019024;28;20390;-60
2022/01/25 16:32:23;;;;;;;44.30;29.08;;;;;;;;;;5022722;28;20179;-59